Terminal Aerodrome Forecast
Issued by NWS

Home | Current Version | Previous Version | Graphics & Text | Print | Product List | Glossary On
Versions: 1 2 3 4 5 6 7 8 9 10 11 12 13 14 15 16 17 18 19 20 21 22
365
FTUS42 KMHX 020911 AAA
TAFPGV
TAF AMD
KPGV 020911Z 0209/0306 20006KT P6SM SCT007 BKN015
     FM021000 21005KT P6SM BKN007
     FM021300 22009KT P6SM BKN040
     FM021700 20011G17KT P6SM VCTS BKN040CB
     FM030000 18008KT P6SM BKN040
      AMD LTD TO CLD VIS AND WIND=

USA.gov is the U.S. government's official web portal to all federal, state and local government web resources and services.